sensor_id;sensor_type;location;lat;lon;timestamp;P1;durP1;ratioP1;P2;durP2;ratioP2
47625;SDS011;33342;45.574;9.252;2023-05-17T00:00:29;8.55;;;6.07;;
47625;SDS011;33342;45.574;9.252;2023-05-17T00:02:56;8.30;;;5.40;;
47625;SDS011;33342;45.574;9.252;2023-05-17T00:05:23;8.20;;;5.43;;
47625;SDS011;33342;45.574;9.252;2023-05-17T00:07:50;10.45;;;5.55;;
47625;SDS011;33342;45.574;9.252;2023-05-17T00:10:17;10.82;;;5.82;;
47625;SDS011;33342;45.574;9.252;2023-05-17T00:12:44;11.57;;;6.57;;
47625;SDS011;33342;45.574;9.252;2023-05-17T00:15:11;9.43;;;6.00;;
47625;SDS011;33342;45.574;9.252;2023-05-17T00:17:40;11.70;;;6.45;;
47625;SDS011;33342;45.574;9.252;2023-05-17T00:20:07;10.15;;;6.80;;
47625;SDS011;33342;45.574;9.252;2023-05-17T00:22:34;11.82;;;6.35;;
47625;SDS011;33342;45.574;9.252;2023-05-17T00:25:01;9.38;;;6.88;;
47625;SDS011;33342;45.574;9.252;2023-05-17T00:27:29;9.80;;;6.60;;
47625;SDS011;33342;45.574;9.252;2023-05-17T00:29:56;10.95;;;7.30;;
47625;SDS011;33342;45.574;9.252;2023-05-17T00:32:23;11.80;;;7.32;;
47625;SDS011;33342;45.574;9.252;2023-05-17T00:34:50;14.30;;;7.07;;
47625;SDS011;33342;45.574;9.252;2023-05-17T00:37:17;11.10;;;7.32;;
47625;SDS011;33342;45.574;9.252;2023-05-17T00:39:44;9.32;;;6.85;;
47625;SDS011;33342;45.574;9.252;2023-05-17T00:42:11;11.13;;;7.28;;
47625;SDS011;33342;45.574;9.252;2023-05-17T00:44:40;10.85;;;7.88;;
47625;SDS011;33342;45.574;9.252;2023-05-17T00:47:07;10.88;;;8.15;;
47625;SDS011;33342;45.574;9.252;2023-05-17T00:49:34;13.02;;;8.23;;
47625;SDS011;33342;45.574;9.252;2023-05-17T00:52:01;10.77;;;8.57;;
47625;SDS011;33342;45.574;9.252;2023-05-17T00:54:28;11.15;;;8.05;;
47625;SDS011;33342;45.574;9.252;2023-05-17T00:56:56;12.45;;;8.73;;
47625;SDS011;33342;45.574;9.252;2023-05-17T00:59:26;11.10;;;7.95;;
47625;SDS011;33342;45.574;9.252;2023-05-17T01:01:54;11.75;;;8.15;;
47625;SDS011;33342;45.574;9.252;2023-05-17T01:04:23;9.82;;;7.55;;
47625;SDS011;33342;45.574;9.252;2023-05-17T01:06:50;12.25;;;8.70;;
47625;SDS011;33342;45.574;9.252;2023-05-17T01:09:17;9.95;;;8.48;;
47625;SDS011;33342;45.574;9.252;2023-05-17T01:11:47;13.80;;;9.85;;
47625;SDS011;33342;45.574;9.252;2023-05-17T01:17:22;12.77;;;8.85;;
47625;SDS011;33342;45.574;9.252;2023-05-17T01:25:35;13.10;;;8.82;;
47625;SDS011;33342;45.574;9.252;2023-05-17T01:28:07;11.23;;;8.63;;
47625;SDS011;33342;45.574;9.252;2023-05-17T01:30:36;14.85;;;9.50;;
47625;SDS011;33342;45.574;9.252;2023-05-17T01:33:05;11.63;;;8.73;;
47625;SDS011;33342;45.574;9.252;2023-05-17T01:35:33;11.23;;;8.90;;
47625;SDS011;33342;45.574;9.252;2023-05-17T01:38:00;10.32;;;8.43;;
47625;SDS011;33342;45.574;9.252;2023-05-17T01:40:27;11.63;;;8.80;;
47625;SDS011;33342;45.574;9.252;2023-05-17T01:43:02;11.43;;;8.88;;
47625;SDS011;33342;45.574;9.252;2023-05-17T01:48:38;11.77;;;8.52;;
47625;SDS011;33342;45.574;9.252;2023-05-17T01:51:07;12.25;;;8.10;;
47625;SDS011;33342;45.574;9.252;2023-05-17T01:53:38;12.45;;;8.38;;
47625;SDS011;33342;45.574;9.252;2023-05-17T01:56:20;16.15;;;8.80;;
47625;SDS011;33342;45.574;9.252;2023-05-17T01:58:53;12.60;;;9.18;;
47625;SDS011;33342;45.574;9.252;2023-05-17T02:01:23;15.45;;;8.52;;
47625;SDS011;33342;45.574;9.252;2023-05-17T02:03:54;12.63;;;9.20;;
47625;SDS011;33342;45.574;9.252;2023-05-17T02:06:21;14.30;;;9.05;;
47625;SDS011;33342;45.574;9.252;2023-05-17T02:08:48;11.48;;;8.73;;
47625;SDS011;33342;45.574;9.252;2023-05-17T02:11:15;12.32;;;9.50;;
47625;SDS011;33342;45.574;9.252;2023-05-17T02:13:42;11.65;;;9.27;;
47625;SDS011;33342;45.574;9.252;2023-05-17T02:16:09;12.55;;;8.95;;
47625;SDS011;33342;45.574;9.252;2023-05-17T02:18:37;11.63;;;9.38;;
47625;SDS011;33342;45.574;9.252;2023-05-17T02:21:06;12.35;;;9.15;;
47625;SDS011;33342;45.574;9.252;2023-05-17T02:23:35;12.50;;;9.27;;
47625;SDS011;33342;45.574;9.252;2023-05-17T02:26:02;13.93;;;9.77;;
47625;SDS011;33342;45.574;9.252;2023-05-17T02:28:29;12.32;;;9.77;;
47625;SDS011;33342;45.574;9.252;2023-05-17T02:30:56;13.52;;;9.30;;
47625;SDS011;33342;45.574;9.252;2023-05-17T02:33:23;13.00;;;9.48;;
47625;SDS011;33342;45.574;9.252;2023-05-17T02:35:50;13.88;;;9.45;;
47625;SDS011;33342;45.574;9.252;2023-05-17T02:38:18;13.35;;;9.90;;
47625;SDS011;33342;45.574;9.252;2023-05-17T02:40:45;12.20;;;9.32;;
47625;SDS011;33342;45.574;9.252;2023-05-17T02:43:12;15.35;;;9.77;;
47625;SDS011;33342;45.574;9.252;2023-05-17T02:45:39;16.23;;;10.68;;
47625;SDS011;33342;45.574;9.252;2023-05-17T02:48:06;12.63;;;9.50;;
47625;SDS011;33342;45.574;9.252;2023-05-17T02:50:33;13.50;;;9.85;;
47625;SDS011;33342;45.574;9.252;2023-05-17T02:53:00;11.32;;;9.13;;
47625;SDS011;33342;45.574;9.252;2023-05-17T02:55:27;12.50;;;9.40;;
47625;SDS011;33342;45.574;9.252;2023-05-17T02:57:54;12.30;;;9.32;;
47625;SDS011;33342;45.574;9.252;2023-05-17T03:00:22;12.45;;;9.70;;
47625;SDS011;33342;45.574;9.252;2023-05-17T03:02:50;12.52;;;10.05;;
47625;SDS011;33342;45.574;9.252;2023-05-17T03:05:17;14.52;;;9.98;;
47625;SDS011;33342;45.574;9.252;2023-05-17T03:07:49;14.00;;;11.05;;
47625;SDS011;33342;45.574;9.252;2023-05-17T03:10:17;13.02;;;10.60;;
47625;SDS011;33342;45.574;9.252;2023-05-17T03:12:45;13.02;;;10.07;;
47625;SDS011;33342;45.574;9.252;2023-05-17T03:15:14;12.75;;;10.70;;
47625;SDS011;33342;45.574;9.252;2023-05-17T03:17:43;13.18;;;10.30;;
47625;SDS011;33342;45.574;9.252;2023-05-17T03:20:10;18.02;;;10.68;;
47625;SDS011;33342;45.574;9.252;2023-05-17T03:22:38;13.30;;;10.70;;
47625;SDS011;33342;45.574;9.252;2023-05-17T03:25:06;15.95;;;10.98;;
47625;SDS011;33342;45.574;9.252;2023-05-17T03:27:35;13.48;;;11.18;;
47625;SDS011;33342;45.574;9.252;2023-05-17T03:30:03;13.90;;;10.93;;
47625;SDS011;33342;45.574;9.252;2023-05-17T03:32:32;12.43;;;10.35;;
47625;SDS011;33342;45.574;9.252;2023-05-17T03:34:59;15.18;;;10.70;;
47625;SDS011;33342;45.574;9.252;2023-05-17T03:37:27;13.95;;;10.25;;
47625;SDS011;33342;45.574;9.252;2023-05-17T03:39:54;13.55;;;10.32;;
47625;SDS011;33342;45.574;9.252;2023-05-17T03:42:21;14.35;;;10.70;;
47625;SDS011;33342;45.574;9.252;2023-05-17T03:44:49;12.68;;;11.05;;
47625;SDS011;33342;45.574;9.252;2023-05-17T03:47:18;15.20;;;11.10;;
47625;SDS011;33342;45.574;9.252;2023-05-17T03:49:49;14.10;;;11.10;;
47625;SDS011;33342;45.574;9.252;2023-05-17T03:52:17;14.52;;;11.18;;
47625;SDS011;33342;45.574;9.252;2023-05-17T03:54:44;14.32;;;10.73;;
47625;SDS011;33342;45.574;9.252;2023-05-17T03:57:14;12.43;;;10.65;;
47625;SDS011;33342;45.574;9.252;2023-05-17T03:59:41;14.25;;;11.13;;
47625;SDS011;33342;45.574;9.252;2023-05-17T04:02:09;16.00;;;11.93;;
47625;SDS011;33342;45.574;9.252;2023-05-17T04:04:36;16.52;;;11.57;;
47625;SDS011;33342;45.574;9.252;2023-05-17T04:07:03;14.68;;;10.90;;
47625;SDS011;33342;45.574;9.252;2023-05-17T04:09:31;15.88;;;11.20;;
47625;SDS011;33342;45.574;9.252;2023-05-17T04:12:00;14.50;;;10.93;;
47625;SDS011;33342;45.574;9.252;2023-05-17T04:14:28;13.95;;;11.20;;
47625;SDS011;33342;45.574;9.252;2023-05-17T04:16:55;16.17;;;11.35;;
47625;SDS011;33342;45.574;9.252;2023-05-17T04:19:23;13.52;;;11.73;;
47625;SDS011;33342;45.574;9.252;2023-05-17T04:21:51;14.63;;;11.23;;
47625;SDS011;33342;45.574;9.252;2023-05-17T04:24:21;15.02;;;10.68;;
47625;SDS011;33342;45.574;9.252;2023-05-17T04:26:48;14.57;;;11.07;;
47625;SDS011;33342;45.574;9.252;2023-05-17T04:29:17;16.33;;;11.13;;
47625;SDS011;33342;45.574;9.252;2023-05-17T04:31:44;17.45;;;11.52;;
47625;SDS011;33342;45.574;9.252;2023-05-17T04:34:15;13.57;;;10.88;;
47625;SDS011;33342;45.574;9.252;2023-05-17T04:36:42;13.40;;;11.13;;
47625;SDS011;33342;45.574;9.252;2023-05-17T04:39:09;15.82;;;12.07;;
47625;SDS011;33342;45.574;9.252;2023-05-17T04:41:37;15.05;;;11.25;;
47625;SDS011;33342;45.574;9.252;2023-05-17T04:44:08;16.30;;;12.07;;
47625;SDS011;33342;45.574;9.252;2023-05-17T04:46:35;18.33;;;11.73;;
47625;SDS011;33342;45.574;9.252;2023-05-17T04:49:03;16.85;;;12.55;;
47625;SDS011;33342;45.574;9.252;2023-05-17T04:51:30;14.18;;;11.00;;
47625;SDS011;33342;45.574;9.252;2023-05-17T04:54:00;15.38;;;11.85;;
47625;SDS011;33342;45.574;9.252;2023-05-17T04:56:29;16.48;;;11.98;;
47625;SDS011;33342;45.574;9.252;2023-05-17T04:58:57;16.70;;;12.00;;
47625;SDS011;33342;45.574;9.252;2023-05-17T05:01:24;16.92;;;12.77;;
47625;SDS011;33342;45.574;9.252;2023-05-17T05:03:52;16.10;;;12.65;;
47625;SDS011;33342;45.574;9.252;2023-05-17T05:06:19;15.25;;;11.70;;
47625;SDS011;33342;45.574;9.252;2023-05-17T05:08:48;18.65;;;12.48;;
47625;SDS011;33342;45.574;9.252;2023-05-17T05:11:15;16.45;;;11.65;;
47625;SDS011;33342;45.574;9.252;2023-05-17T05:13:42;18.27;;;11.50;;
47625;SDS011;33342;45.574;9.252;2023-05-17T05:16:09;13.85;;;10.98;;
47625;SDS011;33342;45.574;9.252;2023-05-17T05:18:36;18.15;;;12.43;;
47625;SDS011;33342;45.574;9.252;2023-05-17T05:21:04;14.35;;;11.55;;
47625;SDS011;33342;45.574;9.252;2023-05-17T05:23:31;16.42;;;11.63;;
47625;SDS011;33342;45.574;9.252;2023-05-17T05:25:59;14.52;;;12.25;;
47625;SDS011;33342;45.574;9.252;2023-05-17T05:28:26;14.57;;;11.77;;
47625;SDS011;33342;45.574;9.252;2023-05-17T05:30:59;15.18;;;10.90;;
47625;SDS011;33342;45.574;9.252;2023-05-17T05:33:33;16.25;;;11.55;;
47625;SDS011;33342;45.574;9.252;2023-05-17T05:36:01;17.45;;;11.05;;
47625;SDS011;33342;45.574;9.252;2023-05-17T05:38:28;14.32;;;10.90;;
47625;SDS011;33342;45.574;9.252;2023-05-17T05:40:55;17.27;;;12.15;;
47625;SDS011;33342;45.574;9.252;2023-05-17T05:43:22;17.75;;;10.93;;
47625;SDS011;33342;45.574;9.252;2023-05-17T05:45:49;14.43;;;11.18;;
47625;SDS011;33342;45.574;9.252;2023-05-17T05:48:17;14.35;;;11.25;;
47625;SDS011;33342;45.574;9.252;2023-05-17T05:50:44;13.93;;;10.68;;
47625;SDS011;33342;45.574;9.252;2023-05-17T05:53:11;13.35;;;10.70;;
47625;SDS011;33342;45.574;9.252;2023-05-17T05:55:53;15.07;;;10.35;;
47625;SDS011;33342;45.574;9.252;2023-05-17T05:58:20;14.10;;;10.90;;
47625;SDS011;33342;45.574;9.252;2023-05-17T06:00:48;16.10;;;10.32;;
47625;SDS011;33342;45.574;9.252;2023-05-17T06:03:15;46.70;;;35.45;;
47625;SDS011;33342;45.574;9.252;2023-05-17T06:05:42;19.17;;;12.25;;
47625;SDS011;33342;45.574;9.252;2023-05-17T06:08:09;17.85;;;12.40;;
47625;SDS011;33342;45.574;9.252;2023-05-17T06:10:36;17.15;;;10.02;;
47625;SDS011;33342;45.574;9.252;2023-05-17T06:13:03;15.55;;;10.02;;
47625;SDS011;33342;45.574;9.252;2023-05-17T06:15:31;14.93;;;10.50;;
47625;SDS011;33342;45.574;9.252;2023-05-17T06:17:58;15.40;;;9.93;;
47625;SDS011;33342;45.574;9.252;2023-05-17T06:20:25;17.27;;;11.00;;
47625;SDS011;33342;45.574;9.252;2023-05-17T06:22:53;14.75;;;9.88;;
47625;SDS011;33342;45.574;9.252;2023-05-17T06:25:20;15.57;;;10.15;;
47625;SDS011;33342;45.574;9.252;2023-05-17T06:27:47;15.55;;;9.68;;
47625;SDS011;33342;45.574;9.252;2023-05-17T06:30:14;15.48;;;10.43;;
47625;SDS011;33342;45.574;9.252;2023-05-17T06:32:41;14.45;;;9.88;;
47625;SDS011;33342;45.574;9.252;2023-05-17T06:35:08;15.35;;;10.38;;
47625;SDS011;33342;45.574;9.252;2023-05-17T06:37:36;18.60;;;10.70;;
47625;SDS011;33342;45.574;9.252;2023-05-17T06:40:03;16.60;;;9.20;;
47625;SDS011;33342;45.574;9.252;2023-05-17T06:42:41;15.77;;;10.05;;
47625;SDS011;33342;45.574;9.252;2023-05-17T06:45:08;13.30;;;9.88;;
47625;SDS011;33342;45.574;9.252;2023-05-17T06:47:36;13.02;;;9.73;;
47625;SDS011;33342;45.574;9.252;2023-05-17T06:50:03;15.75;;;10.57;;
47625;SDS011;33342;45.574;9.252;2023-05-17T06:52:30;16.05;;;9.75;;
47625;SDS011;33342;45.574;9.252;2023-05-17T06:54:57;17.85;;;9.63;;
47625;SDS011;33342;45.574;9.252;2023-05-17T06:57:24;14.55;;;10.20;;
47625;SDS011;33342;45.574;9.252;2023-05-17T06:59:51;16.42;;;9.93;;
47625;SDS011;33342;45.574;9.252;2023-05-17T07:02:19;16.38;;;9.23;;
47625;SDS011;33342;45.574;9.252;2023-05-17T07:04:46;15.80;;;9.10;;
47625;SDS011;33342;45.574;9.252;2023-05-17T07:07:13;12.32;;;8.30;;
47625;SDS011;33342;45.574;9.252;2023-05-17T07:09:41;13.02;;;8.45;;
47625;SDS011;33342;45.574;9.252;2023-05-17T07:12:08;10.88;;;7.90;;
47625;SDS011;33342;45.574;9.252;2023-05-17T07:14:35;10.50;;;7.10;;
47625;SDS011;33342;45.574;9.252;2023-05-17T07:17:02;11.43;;;7.45;;
47625;SDS011;33342;45.574;9.252;2023-05-17T07:19:29;12.32;;;7.38;;
47625;SDS011;33342;45.574;9.252;2023-05-17T07:21:56;12.50;;;7.15;;
47625;SDS011;33342;45.574;9.252;2023-05-17T07:24:23;10.10;;;6.47;;
47625;SDS011;33342;45.574;9.252;2023-05-17T07:26:50;10.07;;;6.85;;
47625;SDS011;33342;45.574;9.252;2023-05-17T07:29:18;11.15;;;6.20;;
47625;SDS011;33342;45.574;9.252;2023-05-17T07:31:45;12.05;;;6.68;;
47625;SDS011;33342;45.574;9.252;2023-05-17T07:34:12;11.00;;;6.97;;
47625;SDS011;33342;45.574;9.252;2023-05-17T07:36:40;10.93;;;5.93;;
47625;SDS011;33342;45.574;9.252;2023-05-17T07:39:07;9.77;;;6.15;;
47625;SDS011;33342;45.574;9.252;2023-05-17T07:41:35;8.10;;;5.22;;
47625;SDS011;33342;45.574;9.252;2023-05-17T07:44:02;8.57;;;6.15;;
47625;SDS011;33342;45.574;9.252;2023-05-17T07:46:29;7.72;;;5.38;;
47625;SDS011;33342;45.574;9.252;2023-05-17T07:48:56;8.88;;;5.13;;
47625;SDS011;33342;45.574;9.252;2023-05-17T07:51:24;8.57;;;5.18;;
47625;SDS011;33342;45.574;9.252;2023-05-17T07:53:51;8.57;;;5.03;;
47625;SDS011;33342;45.574;9.252;2023-05-17T07:56:18;8.82;;;5.55;;
47625;SDS011;33342;45.574;9.252;2023-05-17T07:58:45;9.73;;;5.05;;
47625;SDS011;33342;45.574;9.252;2023-05-17T08:01:13;8.95;;;4.90;;
47625;SDS011;33342;45.574;9.252;2023-05-17T08:03:40;8.05;;;4.70;;
47625;SDS011;33342;45.574;9.252;2023-05-17T08:06:16;7.70;;;4.30;;
47625;SDS011;33342;45.574;9.252;2023-05-17T08:08:44;7.93;;;4.72;;
47625;SDS011;33342;45.574;9.252;2023-05-17T08:11:11;8.38;;;4.72;;
47625;SDS011;33342;45.574;9.252;2023-05-17T08:13:39;8.07;;;4.95;;
47625;SDS011;33342;45.574;9.252;2023-05-17T08:16:06;10.40;;;5.30;;
47625;SDS011;33342;45.574;9.252;2023-05-17T08:18:40;8.38;;;5.05;;
47625;SDS011;33342;45.574;9.252;2023-05-17T08:21:09;7.90;;;4.65;;
47625;SDS011;33342;45.574;9.252;2023-05-17T08:23:36;9.80;;;5.15;;
47625;SDS011;33342;45.574;9.252;2023-05-17T08:26:04;10.38;;;4.95;;
47625;SDS011;33342;45.574;9.252;2023-05-17T08:28:31;7.45;;;4.88;;
47625;SDS011;33342;45.574;9.252;2023-05-17T08:30:58;7.43;;;4.63;;
47625;SDS011;33342;45.574;9.252;2023-05-17T08:33:25;11.30;;;5.82;;
47625;SDS011;33342;45.574;9.252;2023-05-17T08:35:53;9.43;;;5.47;;
47625;SDS011;33342;45.574;9.252;2023-05-17T08:38:20;12.93;;;8.60;;
47625;SDS011;33342;45.574;9.252;2023-05-17T08:40:54;7.18;;;4.82;;
47625;SDS011;33342;45.574;9.252;2023-05-17T08:43:22;11.65;;;5.68;;
47625;SDS011;33342;45.574;9.252;2023-05-17T08:45:53;26.27;;;14.57;;
47625;SDS011;33342;45.574;9.252;2023-05-17T08:48:24;26.23;;;16.23;;
47625;SDS011;33342;45.574;9.252;2023-05-17T08:50:53;23.52;;;15.23;;
47625;SDS011;33342;45.574;9.252;2023-05-17T08:53:21;9.23;;;5.22;;
47625;SDS011;33342;45.574;9.252;2023-05-17T08:55:49;6.53;;;3.90;;
47625;SDS011;33342;45.574;9.252;2023-05-17T08:58:20;7.75;;;4.28;;
47625;SDS011;33342;45.574;9.252;2023-05-17T09:00:52;11.20;;;7.70;;
47625;SDS011;33342;45.574;9.252;2023-05-17T09:03:21;6.45;;;4.10;;
47625;SDS011;33342;45.574;9.252;2023-05-17T09:05:50;8.40;;;4.22;;
47625;SDS011;33342;45.574;9.252;2023-05-17T09:08:21;6.32;;;3.80;;
47625;SDS011;33342;45.574;9.252;2023-05-17T09:10:48;6.35;;;2.83;;
47625;SDS011;33342;45.574;9.252;2023-05-17T09:13:16;5.80;;;3.17;;
47625;SDS011;33342;45.574;9.252;2023-05-17T09:15:43;6.00;;;2.80;;
47625;SDS011;33342;45.574;9.252;2023-05-17T09:18:12;4.55;;;2.63;;
47625;SDS011;33342;45.574;9.252;2023-05-17T09:20:48;6.80;;;2.80;;
47625;SDS011;33342;45.574;9.252;2023-05-17T09:23:18;6.47;;;3.20;;
47625;SDS011;33342;45.574;9.252;2023-05-17T09:25:47;5.47;;;3.17;;
47625;SDS011;33342;45.574;9.252;2023-05-17T09:28:15;6.28;;;3.47;;
47625;SDS011;33342;45.574;9.252;2023-05-17T09:30:46;5.03;;;2.90;;
47625;SDS011;33342;45.574;9.252;2023-05-17T09:33:14;7.10;;;3.17;;
47625;SDS011;33342;45.574;9.252;2023-05-17T09:35:44;5.80;;;2.38;;
47625;SDS011;33342;45.574;9.252;2023-05-17T09:38:12;3.78;;;1.98;;
47625;SDS011;33342;45.574;9.252;2023-05-17T09:40:40;4.60;;;2.22;;
47625;SDS011;33342;45.574;9.252;2023-05-17T09:43:08;6.25;;;2.65;;
47625;SDS011;33342;45.574;9.252;2023-05-17T09:45:37;3.30;;;2.00;;
47625;SDS011;33342;45.574;9.252;2023-05-17T09:50:49;4.25;;;2.05;;
47625;SDS011;33342;45.574;9.252;2023-05-17T09:53:24;9.25;;;2.92;;
47625;SDS011;33342;45.574;9.252;2023-05-17T09:55:52;6.03;;;2.70;;
47625;SDS011;33342;45.574;9.252;2023-05-17T09:58:20;5.88;;;2.78;;
47625;SDS011;33342;45.574;9.252;2023-05-17T10:00:50;5.43;;;2.80;;
47625;SDS011;33342;45.574;9.252;2023-05-17T10:03:19;5.63;;;3.05;;
47625;SDS011;33342;45.574;9.252;2023-05-17T10:05:49;5.32;;;2.70;;
47625;SDS011;33342;45.574;9.252;2023-05-17T10:08:20;6.47;;;3.28;;
47625;SDS011;33342;45.574;9.252;2023-05-17T10:10:48;6.53;;;2.97;;
47625;SDS011;33342;45.574;9.252;2023-05-17T10:13:20;7.57;;;2.80;;
47625;SDS011;33342;45.574;9.252;2023-05-17T10:15:50;5.97;;;2.50;;
47625;SDS011;33342;45.574;9.252;2023-05-17T10:18:18;5.40;;;2.22;;
47625;SDS011;33342;45.574;9.252;2023-05-17T10:20:47;4.82;;;2.45;;
47625;SDS011;33342;45.574;9.252;2023-05-17T10:23:15;5.28;;;2.20;;
47625;SDS011;33342;45.574;9.252;2023-05-17T10:25:43;4.72;;;2.20;;
47625;SDS011;33342;45.574;9.252;2023-05-17T10:28:10;4.30;;;2.33;;
47625;SDS011;33342;45.574;9.252;2023-05-17T10:30:39;5.75;;;2.40;;
47625;SDS011;33342;45.574;9.252;2023-05-17T10:33:08;4.80;;;2.70;;
47625;SDS011;33342;45.574;9.252;2023-05-17T10:35:39;5.95;;;2.42;;
47625;SDS011;33342;45.574;9.252;2023-05-17T10:38:09;5.70;;;2.67;;
47625;SDS011;33342;45.574;9.252;2023-05-17T10:40:37;5.30;;;2.45;;
47625;SDS011;33342;45.574;9.252;2023-05-17T10:43:05;4.55;;;2.30;;
47625;SDS011;33342;45.574;9.252;2023-05-17T10:45:36;5.18;;;2.50;;
47625;SDS011;33342;45.574;9.252;2023-05-17T10:48:04;7.78;;;2.33;;
47625;SDS011;33342;45.574;9.252;2023-05-17T10:50:32;5.03;;;1.90;;
47625;SDS011;33342;45.574;9.252;2023-05-17T10:53:03;3.72;;;1.85;;
47625;SDS011;33342;45.574;9.252;2023-05-17T10:55:37;4.30;;;2.13;;
47625;SDS011;33342;45.574;9.252;2023-05-17T10:58:16;5.22;;;1.83;;
47625;SDS011;33342;45.574;9.252;2023-05-17T11:00:49;5.00;;;1.88;;
47625;SDS011;33342;45.574;9.252;2023-05-17T11:03:25;3.65;;;1.88;;
47625;SDS011;33342;45.574;9.252;2023-05-17T11:17:20;4.35;;;1.60;;
47625;SDS011;33342;45.574;9.252;2023-05-17T11:22:24;3.05;;;1.50;;
47625;SDS011;33342;45.574;9.252;2023-05-17T11:24:54;3.03;;;1.48;;
47625;SDS011;33342;45.574;9.252;2023-05-17T11:27:23;2.95;;;1.67;;
47625;SDS011;33342;45.574;9.252;2023-05-17T11:29:54;4.10;;;1.85;;
47625;SDS011;33342;45.574;9.252;2023-05-17T11:32:29;2.58;;;1.40;;
47625;SDS011;33342;45.574;9.252;2023-05-17T11:34:58;3.13;;;1.70;;
47625;SDS011;33342;45.574;9.252;2023-05-17T11:37:26;7.00;;;2.13;;
47625;SDS011;33342;45.574;9.252;2023-05-17T11:42:32;4.65;;;1.90;;
47625;SDS011;33342;45.574;9.252;2023-05-17T11:45:01;4.00;;;2.30;;
47625;SDS011;33342;45.574;9.252;2023-05-17T11:47:28;5.72;;;2.75;;
47625;SDS011;33342;45.574;9.252;2023-05-17T11:49:59;4.82;;;2.60;;
47625;SDS011;33342;45.574;9.252;2023-05-17T11:52:28;5.95;;;3.08;;
47625;SDS011;33342;45.574;9.252;2023-05-17T11:54:56;5.18;;;2.97;;
47625;SDS011;33342;45.574;9.252;2023-05-17T11:57:30;5.55;;;3.05;;
47625;SDS011;33342;45.574;9.252;2023-05-17T11:59:58;6.90;;;3.45;;
47625;SDS011;33342;45.574;9.252;2023-05-17T12:02:39;6.30;;;3.90;;
47625;SDS011;33342;45.574;9.252;2023-05-17T12:05:07;5.43;;;3.85;;
47625;SDS011;33342;45.574;9.252;2023-05-17T12:07:34;7.05;;;4.30;;
47625;SDS011;33342;45.574;9.252;2023-05-17T12:10:02;6.35;;;4.68;;
47625;SDS011;33342;45.574;9.252;2023-05-17T12:12:31;7.05;;;4.60;;
47625;SDS011;33342;45.574;9.252;2023-05-17T12:14:59;6.43;;;4.45;;
47625;SDS011;33342;45.574;9.252;2023-05-17T12:17:34;6.30;;;4.53;;
47625;SDS011;33342;45.574;9.252;2023-05-17T12:20:09;8.10;;;4.10;;
47625;SDS011;33342;45.574;9.252;2023-05-17T12:22:52;6.53;;;3.75;;
47625;SDS011;33342;45.574;9.252;2023-05-17T12:25:20;8.07;;;4.20;;
47625;SDS011;33342;45.574;9.252;2023-05-17T12:27:51;7.05;;;4.10;;
47625;SDS011;33342;45.574;9.252;2023-05-17T12:30:18;6.57;;;3.58;;
47625;SDS011;33342;45.574;9.252;2023-05-17T12:32:45;6.38;;;4.00;;
47625;SDS011;33342;45.574;9.252;2023-05-17T12:35:13;7.45;;;3.58;;
47625;SDS011;33342;45.574;9.252;2023-05-17T12:37:40;6.60;;;3.50;;
47625;SDS011;33342;45.574;9.252;2023-05-17T12:40:07;5.90;;;3.13;;
47625;SDS011;33342;45.574;9.252;2023-05-17T12:42:37;5.43;;;2.40;;
47625;SDS011;33342;45.574;9.252;2023-05-17T12:45:06;5.78;;;3.00;;
47625;SDS011;33342;45.574;9.252;2023-05-17T12:47:34;5.05;;;2.60;;
47625;SDS011;33342;45.574;9.252;2023-05-17T12:50:01;5.18;;;3.05;;
47625;SDS011;33342;45.574;9.252;2023-05-17T12:52:32;7.43;;;2.90;;
47625;SDS011;33342;45.574;9.252;2023-05-17T12:55:03;6.80;;;2.85;;
47625;SDS011;33342;45.574;9.252;2023-05-17T12:57:30;7.15;;;3.20;;
47625;SDS011;33342;45.574;9.252;2023-05-17T12:59:58;5.05;;;2.88;;
47625;SDS011;33342;45.574;9.252;2023-05-17T13:02:32;6.73;;;3.50;;
47625;SDS011;33342;45.574;9.252;2023-05-17T13:05:12;6.53;;;3.67;;
47625;SDS011;33342;45.574;9.252;2023-05-17T13:07:47;5.75;;;3.35;;
47625;SDS011;33342;45.574;9.252;2023-05-17T13:12:57;6.90;;;3.80;;
47625;SDS011;33342;45.574;9.252;2023-05-17T13:15:29;6.93;;;3.80;;
47625;SDS011;33342;45.574;9.252;2023-05-17T13:17:57;5.47;;;3.28;;
47625;SDS011;33342;45.574;9.252;2023-05-17T13:20:29;5.88;;;3.15;;
47625;SDS011;33342;45.574;9.252;2023-05-17T13:22:56;5.45;;;3.15;;
47625;SDS011;33342;45.574;9.252;2023-05-17T13:25:23;7.57;;;3.20;;
47625;SDS011;33342;45.574;9.252;2023-05-17T13:27:50;7.45;;;4.10;;
47625;SDS011;33342;45.574;9.252;2023-05-17T13:30:18;10.65;;;3.60;;
47625;SDS011;33342;45.574;9.252;2023-05-17T13:32:45;7.75;;;3.42;;
47625;SDS011;33342;45.574;9.252;2023-05-17T13:35:13;8.35;;;3.47;;
47625;SDS011;33342;45.574;9.252;2023-05-17T13:37:39;6.13;;;3.72;;
47625;SDS011;33342;45.574;9.252;2023-05-17T13:40:07;6.30;;;3.30;;
47625;SDS011;33342;45.574;9.252;2023-05-17T13:42:34;6.85;;;3.40;;
47625;SDS011;33342;45.574;9.252;2023-05-17T13:45:02;6.45;;;3.30;;
47625;SDS011;33342;45.574;9.252;2023-05-17T13:47:29;8.20;;;3.63;;
47625;SDS011;33342;45.574;9.252;2023-05-17T13:49:58;8.35;;;2.90;;
47625;SDS011;33342;45.574;9.252;2023-05-17T13:52:29;6.70;;;2.95;;
47625;SDS011;33342;45.574;9.252;2023-05-17T13:54:56;5.03;;;2.97;;
47625;SDS011;33342;45.574;9.252;2023-05-17T13:57:23;6.38;;;3.28;;
47625;SDS011;33342;45.574;9.252;2023-05-17T13:59:50;6.45;;;2.63;;
47625;SDS011;33342;45.574;9.252;2023-05-17T14:02:17;5.57;;;2.80;;
47625;SDS011;33342;45.574;9.252;2023-05-17T14:04:44;9.13;;;2.90;;
47625;SDS011;33342;45.574;9.252;2023-05-17T14:07:11;9.82;;;3.40;;
47625;SDS011;33342;45.574;9.252;2023-05-17T14:09:38;8.20;;;2.78;;
47625;SDS011;33342;45.574;9.252;2023-05-17T14:12:06;5.90;;;3.03;;
47625;SDS011;33342;45.574;9.252;2023-05-17T14:14:33;5.97;;;2.88;;
47625;SDS011;33342;45.574;9.252;2023-05-17T14:17:00;7.55;;;2.70;;
47625;SDS011;33342;45.574;9.252;2023-05-17T14:19:28;5.78;;;3.03;;
47625;SDS011;33342;45.574;9.252;2023-05-17T14:21:55;5.80;;;2.80;;
47625;SDS011;33342;45.574;9.252;2023-05-17T14:24:22;4.75;;;2.35;;
47625;SDS011;33342;45.574;9.252;2023-05-17T14:26:49;6.20;;;2.60;;
47625;SDS011;33342;45.574;9.252;2023-05-17T14:29:16;5.40;;;2.60;;
47625;SDS011;33342;45.574;9.252;2023-05-17T14:31:43;5.20;;;2.60;;
47625;SDS011;33342;45.574;9.252;2023-05-17T14:34:10;8.05;;;2.88;;
47625;SDS011;33342;45.574;9.252;2023-05-17T14:36:37;6.47;;;2.30;;
47625;SDS011;33342;45.574;9.252;2023-05-17T14:39:04;10.15;;;3.25;;
47625;SDS011;33342;45.574;9.252;2023-05-17T14:41:31;6.72;;;2.55;;
47625;SDS011;33342;45.574;9.252;2023-05-17T14:43:58;5.30;;;2.80;;
47625;SDS011;33342;45.574;9.252;2023-05-17T14:46:26;5.75;;;2.80;;
47625;SDS011;33342;45.574;9.252;2023-05-17T14:48:53;5.65;;;2.33;;
47625;SDS011;33342;45.574;9.252;2023-05-17T14:51:22;6.15;;;2.55;;
47625;SDS011;33342;45.574;9.252;2023-05-17T14:53:49;5.13;;;2.60;;
47625;SDS011;33342;45.574;9.252;2023-05-17T14:56:16;4.45;;;2.50;;
47625;SDS011;33342;45.574;9.252;2023-05-17T14:58:44;7.15;;;2.83;;
47625;SDS011;33342;45.574;9.252;2023-05-17T15:01:11;5.18;;;2.78;;
47625;SDS011;33342;45.574;9.252;2023-05-17T15:03:38;7.65;;;2.58;;
47625;SDS011;33342;45.574;9.252;2023-05-17T15:06:05;5.93;;;2.78;;
47625;SDS011;33342;45.574;9.252;2023-05-17T15:08:37;5.68;;;2.72;;
47625;SDS011;33342;45.574;9.252;2023-05-17T15:11:04;4.80;;;2.70;;
47625;SDS011;33342;45.574;9.252;2023-05-17T15:13:31;4.72;;;2.70;;
47625;SDS011;33342;45.574;9.252;2023-05-17T15:15:58;5.80;;;2.85;;
47625;SDS011;33342;45.574;9.252;2023-05-17T15:18:28;6.47;;;2.83;;